Time;durP1;ratioP1;P1;durP2;ratioP2;P2;SDS_P1;SDS_P2;PMS_P1;PMS_P2;Temp;Humidity;BMP_temperature;BMP_pressure;BME280_temperature;BME280_humidity;BME280_pressure;Samples;Min_cycle;Max_cycle;Signal;HPM_P1;HPM_P2
2021/11/13 00:00:36;;;;;;;0.60;0.50;;;;;;;;;;5072547;28;20497;-71
2021/11/13 00:03:03;;;;;;;0.60;0.60;;;;;;;;;;5105788;28;20439;-71
2021/11/13 00:05:30;;;;;;;0.60;0.60;;;;;;;;;;5072024;28;20439;-71
2021/11/13 00:07:59;;;;;;;0.87;0.87;;;;;;;;;;5072982;28;20481;-70
2021/11/13 00:10:27;;;;;;;1.50;1.40;;;;;;;;;;5073495;28;20883;-71
2021/11/13 00:12:54;;;;;;;0.60;0.60;;;;;;;;;;5073097;28;20213;-71
2021/11/13 00:15:21;;;;;;;0.80;0.80;;;;;;;;;;5072143;28;20454;-71
2021/11/13 00:17:51;;;;;;;0.80;0.80;;;;;;;;;;5073083;28;20459;-71
2021/11/13 00:20:20;;;;;;;0.60;0.60;;;;;;;;;;5073116;28;20841;-71
2021/11/13 00:22:46;;;;;;;1.43;1.33;;;;;;;;;;5072996;28;20482;-71
2021/11/13 00:25:15;;;;;;;0.60;0.50;;;;;;;;;;5070172;28;20542;-71
2021/11/13 00:27:42;;;;;;;0.60;0.60;;;;;;;;;;5073182;28;20404;-71
2021/11/13 00:30:11;;;;;;;0.60;0.50;;;;;;;;;;5071862;28;20408;-71
2021/11/13 00:32:38;;;;;;;0.60;0.60;;;;;;;;;;5055025;28;20279;-70
2021/11/13 00:35:05;;;;;;;1.83;1.73;;;;;;;;;;5071633;28;20538;-71
2021/11/13 00:37:32;;;;;;;0.70;0.68;;;;;;;;;;5070927;28;20586;-71
2021/11/13 00:40:00;;;;;;;0.60;0.60;;;;;;;;;;5072382;28;20531;-71
2021/11/13 00:42:28;;;;;;;0.60;0.60;;;;;;;;;;5073676;28;20729;-71
2021/11/13 00:44:55;;;;;;;0.60;0.50;;;;;;;;;;5073558;28;20843;-70
2021/11/13 00:47:23;;;;;;;0.80;0.80;;;;;;;;;;5070260;28;20546;-72
2021/11/13 00:49:50;;;;;;;0.60;0.60;;;;;;;;;;5072373;28;20474;-71
2021/11/13 00:52:17;;;;;;;0.60;0.57;;;;;;;;;;5071895;28;20556;-71
2021/11/13 00:54:44;;;;;;;0.60;0.50;;;;;;;;;;5072379;28;20419;-72
2021/11/13 00:57:12;;;;;;;0.60;0.60;;;;;;;;;;5057084;28;20538;-72
2021/11/13 00:59:40;;;;;;;1.73;0.93;;;;;;;;;;5060085;28;20855;-70
2021/11/13 01:02:07;;;;;;;0.60;0.60;;;;;;;;;;5071864;28;20967;-70
2021/11/13 01:04:35;;;;;;;0.60;0.60;;;;;;;;;;5055472;28;20945;-71
2021/11/13 01:07:01;;;;;;;0.60;0.53;;;;;;;;;;5070529;28;20459;-71
2021/11/13 01:09:29;;;;;;;0.60;0.50;;;;;;;;;;5072395;28;20476;-71
2021/11/13 01:11:57;;;;;;;0.60;0.60;;;;;;;;;;5071913;28;20439;-71
2021/11/13 01:14:24;;;;;;;0.80;0.80;;;;;;;;;;5072260;28;20826;-71
2021/11/13 01:16:53;;;;;;;0.60;0.50;;;;;;;;;;5072003;28;20855;-71
2021/11/13 01:19:19;;;;;;;0.60;0.60;;;;;;;;;;5072775;28;20554;-71
2021/11/13 01:21:46;;;;;;;0.60;0.60;;;;;;;;;;5071274;28;20485;-71
2021/11/13 01:24:13;;;;;;;0.60;0.60;;;;;;;;;;5072776;28;20494;-71
2021/11/13 01:26:40;;;;;;;0.60;0.60;;;;;;;;;;5071946;28;20443;-71
2021/11/13 01:29:06;;;;;;;0.60;0.60;;;;;;;;;;5072886;28;20439;-71
2021/11/13 01:31:33;;;;;;;0.60;0.60;;;;;;;;;;5073074;28;20944;-71
2021/11/13 01:34:01;;;;;;;0.60;0.50;;;;;;;;;;5071555;28;20881;-70
2021/11/13 01:36:32;;;;;;;0.60;0.60;;;;;;;;;;5069322;28;20886;-71
2021/11/13 01:39:01;;;;;;;0.60;0.60;;;;;;;;;;5051646;28;20488;-71
2021/11/13 01:41:32;;;;;;;0.97;0.97;;;;;;;;;;5052346;28;20439;-71
2021/11/13 01:44:04;;;;;;;0.60;0.60;;;;;;;;;;5064778;28;20421;-71
2021/11/13 01:46:34;;;;;;;0.60;0.53;;;;;;;;;;5108063;28;20798;-71
2021/11/13 01:49:03;;;;;;;1.27;1.17;;;;;;;;;;5109042;28;20445;-71
2021/11/13 01:51:45;;;;;;;0.60;0.60;;;;;;;;;;5073737;28;21009;-70
2021/11/13 01:54:15;;;;;;;0.60;0.60;;;;;;;;;;5074647;28;20863;-71
2021/11/13 01:56:50;;;;;;;0.60;0.60;;;;;;;;;;5075157;28;20474;-71
2021/11/13 01:59:22;;;;;;;0.60;0.50;;;;;;;;;;5074700;28;20480;-71
2021/11/13 02:01:51;;;;;;;0.60;0.50;;;;;;;;;;5075000;28;20411;-71
2021/11/13 02:04:21;;;;;;;0.60;0.60;;;;;;;;;;5076007;28;20950;-72
2021/11/13 02:06:50;;;;;;;0.60;0.60;;;;;;;;;;5074586;28;20439;-71
2021/11/13 02:09:26;;;;;;;0.60;0.50;;;;;;;;;;5077193;28;20439;-71
2021/11/13 02:11:56;;;;;;;0.60;0.60;;;;;;;;;;5060492;28;20407;-71
2021/11/13 02:14:27;;;;;;;0.70;0.70;;;;;;;;;;5075546;28;20461;-71
2021/11/13 02:16:59;;;;;;;0.60;0.60;;;;;;;;;;5074941;28;20545;-71
2021/11/13 02:19:31;;;;;;;0.60;0.60;;;;;;;;;;5075814;28;20454;-71
2021/11/13 02:22:06;;;;;;;0.60;0.50;;;;;;;;;;5075398;28;20427;-71
2021/11/13 02:24:43;;;;;;;0.60;0.50;;;;;;;;;;5076266;28;20434;-71
2021/11/13 02:27:13;;;;;;;0.60;0.50;;;;;;;;;;5057198;28;20982;-72
2021/11/13 02:29:43;;;;;;;0.60;0.60;;;;;;;;;;5074998;28;20752;-71
2021/11/13 02:32:15;;;;;;;0.60;0.50;;;;;;;;;;5074506;28;20439;-71
2021/11/13 02:34:50;;;;;;;0.60;0.60;;;;;;;;;;5089488;28;20497;-71
2021/11/13 02:37:27;;;;;;;0.60;0.60;;;;;;;;;;5074877;28;20542;-71
2021/11/13 02:40:20;;;;;;;0.60;0.50;;;;;;;;;;5075431;28;20391;-72
2021/11/13 02:42:50;;;;;;;0.60;0.60;;;;;;;;;;5074567;28;20447;-71
2021/11/13 02:45:21;;;;;;;1.00;0.90;;;;;;;;;;5074632;28;20435;-71
2021/11/13 02:47:50;;;;;;;0.60;0.50;;;;;;;;;;5075357;28;20408;-71
2021/11/13 02:50:18;;;;;;;0.60;0.50;;;;;;;;;;5073435;28;20439;-71
2021/11/13 02:52:47;;;;;;;0.70;0.70;;;;;;;;;;5074421;28;20462;-71
2021/11/13 02:55:14;;;;;;;0.60;0.57;;;;;;;;;;5056248;28;20444;-71
2021/11/13 02:57:41;;;;;;;0.60;0.50;;;;;;;;;;5055371;28;20511;-72
2021/11/13 03:00:09;;;;;;;0.60;0.60;;;;;;;;;;5053982;28;20545;-71
2021/11/13 03:02:36;;;;;;;0.60;0.50;;;;;;;;;;5063272;28;20473;-71
2021/11/13 03:05:03;;;;;;;0.60;0.60;;;;;;;;;;5072575;28;20446;-72
2021/11/13 03:07:31;;;;;;;0.60;0.50;;;;;;;;;;5072625;28;20950;-71
2021/11/13 03:10:00;;;;;;;0.60;0.50;;;;;;;;;;5072735;28;20438;-71
2021/11/13 03:12:28;;;;;;;0.60;0.60;;;;;;;;;;5074044;28;20439;-71
2021/11/13 03:14:55;;;;;;;0.73;0.73;;;;;;;;;;5073229;28;20438;-71
2021/11/13 03:17:22;;;;;;;0.60;0.50;;;;;;;;;;5073290;28;20419;-71
2021/11/13 03:19:49;;;;;;;0.70;0.60;;;;;;;;;;5072944;28;20467;-71
2021/11/13 03:22:17;;;;;;;0.60;0.60;;;;;;;;;;5072242;28;20570;-71
2021/11/13 03:24:44;;;;;;;0.60;0.50;;;;;;;;;;5074707;28;20832;-71
2021/11/13 03:27:12;;;;;;;0.70;0.70;;;;;;;;;;5072630;28;20423;-70
2021/11/13 03:29:41;;;;;;;0.60;0.60;;;;;;;;;;5074186;28;20678;-70
2021/11/13 03:32:08;;;;;;;0.60;0.50;;;;;;;;;;5088612;28;20455;-70
2021/11/13 03:34:35;;;;;;;1.83;1.73;;;;;;;;;;5073022;28;20455;-70
2021/11/13 03:37:02;;;;;;;0.60;0.50;;;;;;;;;;5071780;28;21043;-71
2021/11/13 03:39:28;;;;;;;0.60;0.50;;;;;;;;;;5073709;28;20914;-70
2021/11/13 03:41:55;;;;;;;0.83;0.83;;;;;;;;;;5089896;28;20443;-70
2021/11/13 03:44:23;;;;;;;0.70;0.50;;;;;;;;;;5074175;28;20426;-70
2021/11/13 03:46:50;;;;;;;0.60;0.50;;;;;;;;;;5073371;28;20480;-71
2021/11/13 03:49:18;;;;;;;0.60;0.50;;;;;;;;;;5074060;28;20509;-71
2021/11/13 03:51:45;;;;;;;0.80;0.80;;;;;;;;;;5073747;28;20476;-71
2021/11/13 03:54:12;;;;;;;0.60;0.50;;;;;;;;;;5072360;28;20998;-71
2021/11/13 03:56:40;;;;;;;0.60;0.60;;;;;;;;;;5106704;28;20435;-71
2021/11/13 03:59:07;;;;;;;1.10;1.00;;;;;;;;;;5074071;28;20461;-70
2021/11/13 04:01:36;;;;;;;0.60;0.50;;;;;;;;;;5072137;28;20814;-70
2021/11/13 04:04:03;;;;;;;0.60;0.50;;;;;;;;;;5072288;28;20919;-71
2021/11/13 04:06:31;;;;;;;0.60;0.50;;;;;;;;;;5072389;28;20430;-72
2021/11/13 04:08:58;;;;;;;0.70;0.70;;;;;;;;;;5053673;28;20489;-72
2021/11/13 04:11:24;;;;;;;0.60;0.50;;;;;;;;;;5057407;28;20508;-72
2021/11/13 04:13:51;;;;;;;0.60;0.53;;;;;;;;;;5072794;28;20545;-72
2021/11/13 04:16:19;;;;;;;0.60;0.50;;;;;;;;;;5072361;28;20871;-72
2021/11/13 04:18:47;;;;;;;0.60;0.60;;;;;;;;;;5072264;28;20812;-73
2021/11/13 04:21:14;;;;;;;0.60;0.50;;;;;;;;;;5071821;28;20434;-73
2021/11/13 04:23:43;;;;;;;0.60;0.50;;;;;;;;;;5071401;28;20517;-74
2021/11/13 04:26:11;;;;;;;0.60;0.60;;;;;;;;;;5071832;28;20477;-72
2021/11/13 04:28:38;;;;;;;0.60;0.60;;;;;;;;;;5072413;28;20435;-73
2021/11/13 04:31:05;;;;;;;0.60;0.50;;;;;;;;;;5073554;28;20415;-72
2021/11/13 04:33:34;;;;;;;0.60;0.50;;;;;;;;;;5067490;28;20487;-72
2021/11/13 04:36:21;;;;;;;0.73;0.73;;;;;;;;;;5077546;28;20412;-75
2021/11/13 04:38:48;;;;;;;0.60;0.50;;;;;;;;;;5075257;28;20470;-73
2021/11/13 04:41:15;;;;;;;0.60;0.60;;;;;;;;;;5072910;28;20447;-73
2021/11/13 04:43:42;;;;;;;0.60;0.53;;;;;;;;;;5072005;28;20435;-74
2021/11/13 04:46:09;;;;;;;0.60;0.50;;;;;;;;;;5073037;28;20435;-73
2021/11/13 04:48:36;;;;;;;0.93;0.73;;;;;;;;;;5073350;28;20431;-73
2021/11/13 04:51:04;;;;;;;0.60;0.50;;;;;;;;;;5073424;28;20510;-74
2021/11/13 04:53:30;;;;;;;0.60;0.60;;;;;;;;;;5071003;28;20550;-73
2021/11/13 04:55:58;;;;;;;0.60;0.50;;;;;;;;;;5072799;28;20888;-73
2021/11/13 04:58:24;;;;;;;0.60;0.50;;;;;;;;;;5072432;28;20580;-74
2021/11/13 05:00:51;;;;;;;0.60;0.50;;;;;;;;;;5072212;28;21002;-73
2021/11/13 05:03:18;;;;;;;0.60;0.50;;;;;;;;;;5072013;28;20876;-74
2021/11/13 05:05:44;;;;;;;0.60;0.50;;;;;;;;;;5072556;28;20443;-73
2021/11/13 05:08:13;;;;;;;0.60;0.50;;;;;;;;;;5072668;28;20457;-73
2021/11/13 05:10:40;;;;;;;0.60;0.50;;;;;;;;;;5072230;28;20530;-74
2021/11/13 05:13:08;;;;;;;1.80;1.33;;;;;;;;;;5072474;28;20554;-74
2021/11/13 05:15:35;;;;;;;0.60;0.50;;;;;;;;;;5071142;28;20514;-74
2021/11/13 05:18:01;;;;;;;0.60;0.50;;;;;;;;;;5075842;28;20411;-74
2021/11/13 05:20:28;;;;;;;0.60;0.50;;;;;;;;;;5075525;28;20491;-74
2021/11/13 05:22:55;;;;;;;0.60;0.50;;;;;;;;;;5075271;28;20498;-74
2021/11/13 05:25:24;;;;;;;0.60;0.50;;;;;;;;;;5075320;28;20459;-74
2021/11/13 05:27:51;;;;;;;0.60;0.50;;;;;;;;;;5077389;28;20411;-73
2021/11/13 05:30:19;;;;;;;0.60;0.50;;;;;;;;;;5058923;28;20522;-73
2021/11/13 05:32:48;;;;;;;0.60;0.50;;;;;;;;;;5075265;28;20934;-75
2021/11/13 05:35:15;;;;;;;0.60;0.50;;;;;;;;;;5073148;28;20489;-73
2021/11/13 05:37:42;;;;;;;0.60;0.50;;;;;;;;;;5067551;28;20485;-74
2021/11/13 05:40:10;;;;;;;0.60;0.50;;;;;;;;;;5076507;28;20446;-73
2021/11/13 05:42:38;;;;;;;0.67;0.60;;;;;;;;;;5075421;28;20464;-74
2021/11/13 05:45:05;;;;;;;0.60;0.50;;;;;;;;;;5075235;28;20481;-74
2021/11/13 05:47:33;;;;;;;0.60;0.60;;;;;;;;;;5075915;28;20534;-73
2021/11/13 05:50:00;;;;;;;0.60;0.50;;;;;;;;;;5076760;28;20415;-73
2021/11/13 05:52:27;;;;;;;0.60;0.50;;;;;;;;;;5074903;28;20516;-73
2021/11/13 05:54:53;;;;;;;0.60;0.50;;;;;;;;;;5076767;28;20407;-73
2021/11/13 05:57:21;;;;;;;0.70;0.70;;;;;;;;;;5074686;28;20856;-74
2021/11/13 05:59:54;;;;;;;0.60;0.50;;;;;;;;;;5093274;28;20833;-74
2021/11/13 06:02:21;;;;;;;0.60;0.50;;;;;;;;;;5075667;28;20443;-72
2021/11/13 06:04:47;;;;;;;0.60;0.60;;;;;;;;;;5076119;28;20453;-73
2021/11/13 06:07:15;;;;;;;0.60;0.50;;;;;;;;;;5075435;28;20458;-73
2021/11/13 06:09:42;;;;;;;0.60;0.50;;;;;;;;;;5076647;28;20438;-73
2021/11/13 06:12:09;;;;;;;0.60;0.50;;;;;;;;;;5075813;28;20784;-73
2021/11/13 06:14:36;;;;;;;0.60;0.60;;;;;;;;;;5074266;28;20497;-73
2021/11/13 06:17:06;;;;;;;0.60;0.60;;;;;;;;;;5073915;28;20450;-72
2021/11/13 06:19:33;;;;;;;0.60;0.50;;;;;;;;;;5075235;28;20451;-73
2021/11/13 06:22:02;;;;;;;0.60;0.50;;;;;;;;;;5076585;28;20428;-74
2021/11/13 06:24:31;;;;;;;0.60;0.50;;;;;;;;;;5074746;28;20467;-73
2021/11/13 06:26:58;;;;;;;0.60;0.50;;;;;;;;;;5075106;28;20462;-73
2021/11/13 06:29:25;;;;;;;0.60;0.50;;;;;;;;;;5075669;28;20423;-75
2021/11/13 06:31:56;;;;;;;1.33;1.23;;;;;;;;;;5076760;28;20473;-73
2021/11/13 06:34:25;;;;;;;0.60;0.50;;;;;;;;;;5075763;28;20859;-73
2021/11/13 06:36:52;;;;;;;0.60;0.50;;;;;;;;;;5074206;28;20454;-74
2021/11/13 06:39:20;;;;;;;0.60;0.50;;;;;;;;;;5075466;28;20463;-74
2021/11/13 06:41:47;;;;;;;0.80;0.80;;;;;;;;;;5073625;28;20847;-74
2021/11/13 06:44:13;;;;;;;0.60;0.50;;;;;;;;;;5074929;28;20439;-73
2021/11/13 06:46:40;;;;;;;3.13;2.93;;;;;;;;;;5074468;28;20852;-73
2021/11/13 06:49:07;;;;;;;0.60;0.50;;;;;;;;;;5074890;28;20510;-73
2021/11/13 06:51:41;;;;;;;0.60;0.60;;;;;;;;;;5073965;28;20943;-74
2021/11/13 06:54:07;;;;;;;0.60;0.50;;;;;;;;;;5074778;28;20875;-73
2021/11/13 06:56:34;;;;;;;0.60;0.50;;;;;;;;;;5069911;28;20447;-73
2021/11/13 06:59:04;;;;;;;0.60;0.60;;;;;;;;;;5071467;28;20430;-73
2021/11/13 07:01:31;;;;;;;0.70;0.70;;;;;;;;;;5072701;28;20506;-73
2021/11/13 07:03:58;;;;;;;0.60;0.50;;;;;;;;;;5073339;28;20533;-73
2021/11/13 07:06:25;;;;;;;0.60;0.50;;;;;;;;;;5073704;28;20541;-73
2021/11/13 07:08:53;;;;;;;1.03;0.93;;;;;;;;;;5073840;28;20477;-73
2021/11/13 07:11:20;;;;;;;0.60;0.50;;;;;;;;;;5074146;28;20438;-73
2021/11/13 07:13:48;;;;;;;0.60;0.50;;;;;;;;;;5075088;28;20476;-74
2021/11/13 07:16:15;;;;;;;0.60;0.50;;;;;;;;;;5055573;28;20945;-74
2021/11/13 07:18:42;;;;;;;0.60;0.50;;;;;;;;;;5076153;28;20438;-74
2021/11/13 07:21:09;;;;;;;1.07;1.07;;;;;;;;;;5073751;28;20471;-74
2021/11/13 07:23:37;;;;;;;0.60;0.50;;;;;;;;;;5075845;28;20849;-74
2021/11/13 07:26:06;;;;;;;0.60;0.50;;;;;;;;;;5071924;28;20794;-73
2021/11/13 07:28:39;;;;;;;0.60;0.50;;;;;;;;;;5075840;28;20772;-74
2021/11/13 07:31:06;;;;;;;0.60;0.50;;;;;;;;;;5075431;28;20455;-73
2021/11/13 07:33:38;;;;;;;0.60;0.50;;;;;;;;;;5074594;28;20436;-73
2021/11/13 07:36:04;;;;;;;0.60;0.50;;;;;;;;;;5073761;28;20462;-73
2021/11/13 07:38:31;;;;;;;0.60;0.60;;;;;;;;;;5075711;28;20483;-73
2021/11/13 07:40:59;;;;;;;0.60;0.50;;;;;;;;;;5072196;28;20463;-73
2021/11/13 07:43:27;;;;;;;0.60;0.60;;;;;;;;;;5073981;28;20883;-73
2021/11/13 07:45:53;;;;;;;0.60;0.50;;;;;;;;;;5106165;28;20502;-73
2021/11/13 07:48:20;;;;;;;0.60;0.50;;;;;;;;;;5072295;28;21048;-74
2021/11/13 07:50:48;;;;;;;0.60;0.50;;;;;;;;;;5073646;28;20833;-73
2021/11/13 07:53:16;;;;;;;0.60;0.60;;;;;;;;;;5072029;28;20867;-73
2021/11/13 07:55:43;;;;;;;0.60;0.50;;;;;;;;;;5071637;28;20516;-74
2021/11/13 07:58:15;;;;;;;0.60;0.60;;;;;;;;;;5087355;28;20552;-73
2021/11/13 08:00:44;;;;;;;0.60;0.60;;;;;;;;;;5055103;28;20490;-74
2021/11/13 08:03:12;;;;;;;0.60;0.50;;;;;;;;;;5089666;28;20838;-73
2021/11/13 08:05:38;;;;;;;0.60;0.50;;;;;;;;;;5073342;28;20476;-74
2021/11/13 08:08:05;;;;;;;0.60;0.50;;;;;;;;;;5071478;28;20465;-73
2021/11/13 08:10:38;;;;;;;0.60;0.50;;;;;;;;;;5075076;28;20413;-73
2021/11/13 08:13:06;;;;;;;0.60;0.50;;;;;;;;;;5074463;28;20473;-73
2021/11/13 08:15:36;;;;;;;0.70;0.70;;;;;;;;;;5075770;28;20437;-73
2021/11/13 08:18:05;;;;;;;0.60;0.60;;;;;;;;;;5073212;28;20402;-73
2021/11/13 08:20:33;;;;;;;0.60;0.50;;;;;;;;;;5073119;28;20791;-73
2021/11/13 08:23:00;;;;;;;0.60;0.50;;;;;;;;;;5070789;28;20480;-73
2021/11/13 08:25:28;;;;;;;0.60;0.50;;;;;;;;;;5071339;28;20496;-73
2021/11/13 08:27:55;;;;;;;0.60;0.50;;;;;;;;;;5073108;28;20441;-73
2021/11/13 08:30:22;;;;;;;0.60;0.60;;;;;;;;;;5072033;28;20513;-73
2021/11/13 08:32:50;;;;;;;0.60;0.50;;;;;;;;;;5076049;28;20429;-73
2021/11/13 08:35:18;;;;;;;0.80;0.80;;;;;;;;;;5070686;28;20546;-73
2021/11/13 08:37:45;;;;;;;0.60;0.60;;;;;;;;;;5053251;28;21042;-74
2021/11/13 08:40:13;;;;;;;0.60;0.50;;;;;;;;;;5071495;28;20972;-73
2021/11/13 08:42:39;;;;;;;0.60;0.50;;;;;;;;;;5069845;28;20476;-74
2021/11/13 08:45:07;;;;;;;0.60;0.50;;;;;;;;;;5069947;28;20475;-73
2021/11/13 08:47:35;;;;;;;0.60;0.50;;;;;;;;;;5069457;28;20537;-73
2021/11/13 08:50:03;;;;;;;0.60;0.50;;;;;;;;;;5072338;28;20437;-73
2021/11/13 08:52:31;;;;;;;0.60;0.60;;;;;;;;;;5074893;28;20503;-73
2021/11/13 08:54:59;;;;;;;0.60;0.50;;;;;;;;;;5075074;28;20430;-73
2021/11/13 08:57:26;;;;;;;0.60;0.50;;;;;;;;;;5072481;28;20537;-73
2021/11/13 08:59:53;;;;;;;0.60;0.60;;;;;;;;;;5075615;28;20437;-73
2021/11/13 09:02:23;;;;;;;0.60;0.50;;;;;;;;;;5077077;28;20511;-72
2021/11/13 09:04:51;;;;;;;0.60;0.50;;;;;;;;;;5076878;28;20445;-73
2021/11/13 09:07:19;;;;;;;0.60;0.60;;;;;;;;;;5057461;28;20465;-73
2021/11/13 09:09:48;;;;;;;0.60;0.50;;;;;;;;;;5056669;28;20410;-72
2021/11/13 09:12:21;;;;;;;0.60;0.50;;;;;;;;;;5070190;28;20462;-73
2021/11/13 09:14:49;;;;;;;0.60;0.50;;;;;;;;;;5075421;28;20515;-73
2021/11/13 09:17:17;;;;;;;0.60;0.50;;;;;;;;;;5074779;28;20930;-73
2021/11/13 09:19:45;;;;;;;0.60;0.50;;;;;;;;;;5076077;28;20888;-73
2021/11/13 09:22:11;;;;;;;0.63;0.57;;;;;;;;;;5074497;28;21000;-73
2021/11/13 09:24:38;;;;;;;0.60;0.60;;;;;;;;;;5076256;28;20450;-75
2021/11/13 09:27:07;;;;;;;0.60;0.60;;;;;;;;;;5074774;28;20918;-73
2021/11/13 09:29:33;;;;;;;0.60;0.60;;;;;;;;;;5074624;28;20920;-73
2021/11/13 09:32:00;;;;;;;10.40;1.63;;;;;;;;;;5075010;28;20855;-74
2021/11/13 09:34:27;;;;;;;0.60;0.60;;;;;;;;;;5075589;28;20446;-75
2021/11/13 09:36:55;;;;;;;2.20;1.93;;;;;;;;;;5085881;28;20479;-73
2021/11/13 09:39:22;;;;;;;0.60;0.50;;;;;;;;;;5059072;28;20471;-73
2021/11/13 09:41:51;;;;;;;0.60;0.60;;;;;;;;;;5076194;28;20451;-73
2021/11/13 09:44:22;;;;;;;0.60;0.60;;;;;;;;;;5074587;28;20866;-73
2021/11/13 09:46:51;;;;;;;0.60;0.50;;;;;;;;;;5073822;28;20481;-73
2021/11/13 09:49:19;;;;;;;0.60;0.50;;;;;;;;;;5074919;28;20495;-72
2021/11/13 09:51:47;;;;;;;0.60;0.60;;;;;;;;;;5073986;28;20797;-73
2021/11/13 09:54:14;;;;;;;0.60;0.60;;;;;;;;;;5087132;28;20463;-73
2021/11/13 09:56:41;;;;;;;0.60;0.60;;;;;;;;;;5073496;28;20458;-73
2021/11/13 09:59:08;;;;;;;0.60;0.50;;;;;;;;;;5075848;28;20474;-73
2021/11/13 10:01:36;;;;;;;0.60;0.60;;;;;;;;;;5075183;28;21036;-73
2021/11/13 10:04:03;;;;;;;0.60;0.50;;;;;;;;;;5075423;28;20407;-75
2021/11/13 10:06:30;;;;;;;0.60;0.60;;;;;;;;;;5056835;28;20958;-74
2021/11/13 10:08:57;;;;;;;0.60;0.60;;;;;;;;;;5073926;28;20444;-74
2021/11/13 10:11:25;;;;;;;0.60;0.50;;;;;;;;;;5074531;28;20857;-75
2021/11/13 10:13:52;;;;;;;0.60;0.50;;;;;;;;;;5074803;28;20434;-74
2021/11/13 10:16:20;;;;;;;0.60;0.50;;;;;;;;;;5074385;28;20439;-75
2021/11/13 10:18:50;;;;;;;0.87;0.87;;;;;;;;;;5074541;28;20820;-74
2021/11/13 10:21:19;;;;;;;0.60;0.60;;;;;;;;;;5074150;28;20541;-75
2021/11/13 10:23:47;;;;;;;0.60;0.50;;;;;;;;;;5075207;28;20515;-75
2021/11/13 10:26:17;;;;;;;0.60;0.60;;;;;;;;;;5074081;28;20445;-75
2021/11/13 10:28:48;;;;;;;0.60;0.50;;;;;;;;;;5074995;28;20552;-75
2021/11/13 10:31:16;;;;;;;0.70;0.60;;;;;;;;;;5073191;28;20774;-75
2021/11/13 10:33:43;;;;;;;0.60;0.60;;;;;;;;;;5074789;28;20441;-75
2021/11/13 10:36:11;;;;;;;0.60;0.60;;;;;;;;;;5073037;28;20440;-75
2021/11/13 10:38:39;;;;;;;0.60;0.60;;;;;;;;;;5074443;28;20515;-75
2021/11/13 10:41:07;;;;;;;0.60;0.60;;;;;;;;;;5075233;28;20463;-75
2021/11/13 10:43:35;;;;;;;0.60;0.60;;;;;;;;;;5085252;28;20412;-75
2021/11/13 10:46:03;;;;;;;0.60;0.60;;;;;;;;;;5062301;28;20446;-74
2021/11/13 10:48:32;;;;;;;0.60;0.60;;;;;;;;;;5073351;28;20453;-76
2021/11/13 10:51:06;;;;;;;1.30;1.13;;;;;;;;;;5067877;28;20463;-75
2021/11/13 10:53:34;;;;;;;0.70;0.60;;;;;;;;;;5052797;28;20479;-75
2021/11/13 10:56:03;;;;;;;0.60;0.60;;;;;;;;;;5064999;28;20524;-75
2021/11/13 10:58:31;;;;;;;0.60;0.60;;;;;;;;;;5073852;28;20423;-74
2021/11/13 11:00:58;;;;;;;0.70;0.70;;;;;;;;;;5073643;28;20449;-74
2021/11/13 11:03:29;;;;;;;0.60;0.60;;;;;;;;;;5072144;28;20494;-74
2021/11/13 11:05:56;;;;;;;0.67;0.67;;;;;;;;;;5062532;28;20456;-74
2021/11/13 11:08:25;;;;;;;0.60;0.60;;;;;;;;;;5070071;28;20804;-76
2021/11/13 11:10:54;;;;;;;0.60;0.60;;;;;;;;;;5074552;28;20921;-74
2021/11/13 11:13:36;;;;;;;0.70;0.70;;;;;;;;;;5073391;28;20421;-74
2021/11/13 11:16:16;;;;;;;0.60;0.60;;;;;;;;;;5054975;28;20513;-75
2021/11/13 11:18:54;;;;;;;0.70;0.70;;;;;;;;;;5069379;28;20928;-75
2021/11/13 11:21:37;;;;;;;0.60;0.60;;;;;;;;;;5073488;28;20866;-74
2021/11/13 11:24:08;;;;;;;0.97;0.87;;;;;;;;;;5078018;28;20800;-74
2021/11/13 11:26:39;;;;;;;1.33;1.23;;;;;;;;;;5074011;28;20490;-74
2021/11/13 11:29:06;;;;;;;0.60;0.60;;;;;;;;;;5073613;28;21157;-76
2021/11/13 11:31:37;;;;;;;1.27;1.17;;;;;;;;;;5073536;28;20819;-76
2021/11/13 11:34:04;;;;;;;0.60;0.60;;;;;;;;;;5071464;28;20458;-76
2021/11/13 11:36:32;;;;;;;0.60;0.60;;;;;;;;;;5071735;28;20558;-75
2021/11/13 11:39:00;;;;;;;0.60;0.60;;;;;;;;;;5073698;28;20975;-76
2021/11/13 11:41:27;;;;;;;0.60;0.60;;;;;;;;;;5074105;28;20462;-76
2021/11/13 11:43:55;;;;;;;0.60;0.60;;;;;;;;;;5076056;28;20881;-76
2021/11/13 11:46:22;;;;;;;0.60;0.50;;;;;;;;;;5074058;28;20435;-75
2021/11/13 11:48:51;;;;;;;0.60;0.60;;;;;;;;;;5072091;28;20454;-76
2021/11/13 11:51:18;;;;;;;0.60;0.60;;;;;;;;;;5071350;28;20430;-76
2021/11/13 11:53:45;;;;;;;0.60;0.60;;;;;;;;;;5073511;28;20479;-75
2021/11/13 11:56:13;;;;;;;0.60;0.60;;;;;;;;;;5071658;28;20880;-75
2021/11/13 11:58:43;;;;;;;0.60;0.50;;;;;;;;;;5097753;28;20444;-75
2021/11/13 12:01:25;;;;;;;0.60;0.60;;;;;;;;;;5072024;28;20461;-76
2021/11/13 12:04:07;;;;;;;0.60;0.60;;;;;;;;;;5073705;28;20415;-76
2021/11/13 12:06:38;;;;;;;0.60;0.60;;;;;;;;;;5073761;28;20457;-75
2021/11/13 12:09:05;;;;;;;0.60;0.60;;;;;;;;;;5073255;28;20472;-76
2021/11/13 12:11:36;;;;;;;0.60;0.60;;;;;;;;;;5072348;28;20501;-77
2021/11/13 12:14:33;;;;;;;0.60;0.60;;;;;;;;;;5070768;28;20458;-76
2021/11/13 12:17:17;;;;;;;0.70;0.70;;;;;;;;;;5038490;28;21018;-76
2021/11/13 12:22:42;;;;;;;0.60;0.50;;;;;;;;;;5081802;28;20674;-74
2021/11/13 12:25:12;;;;;;;0.60;0.50;;;;;;;;;;5069721;28;20450;-75
2021/11/13 12:27:39;;;;;;;0.60;0.60;;;;;;;;;;5069229;28;20443;-75
2021/11/13 12:30:07;;;;;;;0.60;0.60;;;;;;;;;;5069480;28;20436;-77
2021/11/13 12:32:38;;;;;;;0.60;0.60;;;;;;;;;;5069621;28;21143;-73
2021/11/13 12:35:05;;;;;;;0.60;0.50;;;;;;;;;;5066723;28;20473;-75
2021/11/13 12:37:33;;;;;;;0.63;0.60;;;;;;;;;;5069061;28;20454;-76
2021/11/13 12:40:02;;;;;;;0.80;0.80;;;;;;;;;;5067812;28;20444;-74
2021/11/13 12:42:30;;;;;;;0.60;0.50;;;;;;;;;;5055430;28;20511;-74
2021/11/13 12:44:57;;;;;;;0.60;0.60;;;;;;;;;;5067336;28;20494;-74
2021/11/13 12:47:25;;;;;;;0.60;0.60;;;;;;;;;;5084183;28;20436;-74
2021/11/13 12:49:53;;;;;;;0.60;0.57;;;;;;;;;;5048850;28;20434;-74
2021/11/13 12:52:27;;;;;;;0.60;0.60;;;;;;;;;;5049491;28;20538;-74
2021/11/13 12:54:59;;;;;;;0.60;0.60;;;;;;;;;;5048862;28;20482;-74
2021/11/13 12:57:31;;;;;;;0.60;0.50;;;;;;;;;;5061510;28;20505;-75
2021/11/13 12:59:59;;;;;;;0.60;0.57;;;;;;;;;;5069814;28;20428;-73
2021/11/13 13:02:27;;;;;;;0.60;0.60;;;;;;;;;;5070155;28;20451;-75
2021/11/13 13:04:54;;;;;;;0.87;0.67;;;;;;;;;;5068916;28;20520;-73
2021/11/13 13:07:22;;;;;;;0.60;0.50;;;;;;;;;;5068871;28;20463;-73
2021/11/13 13:09:50;;;;;;;1.10;1.00;;;;;;;;;;5069696;28;20409;-74
2021/11/13 13:12:18;;;;;;;0.70;0.70;;;;;;;;;;5069579;28;20419;-75
2021/11/13 13:14:54;;;;;;;0.60;0.60;;;;;;;;;;5068630;28;20443;-74
2021/11/13 13:17:21;;;;;;;0.60;0.50;;;;;;;;;;5068293;28;20474;-72
2021/11/13 13:19:51;;;;;;;0.60;0.50;;;;;;;;;;5068301;28;20510;-74
2021/11/13 13:22:18;;;;;;;0.60;0.50;;;;;;;;;;5067933;28;20479;-74
2021/11/13 13:24:48;;;;;;;0.63;0.60;;;;;;;;;;5069330;28;20893;-74
2021/11/13 13:27:15;;;;;;;0.60;0.60;;;;;;;;;;5051587;28;20465;-73
2021/11/13 13:29:43;;;;;;;0.60;0.60;;;;;;;;;;5058150;28;20505;-72
2021/11/13 13:32:14;;;;;;;0.60;0.60;;;;;;;;;;5042070;28;20490;-72
2021/11/13 13:34:49;;;;;;;0.60;0.60;;;;;;;;;;5050039;28;20467;-74
2021/11/13 13:37:19;;;;;;;1.27;1.17;;;;;;;;;;5053424;28;20513;-74
2021/11/13 13:39:46;;;;;;;0.70;0.60;;;;;;;;;;5055804;28;20413;-73
2021/11/13 13:42:13;;;;;;;0.90;0.80;;;;;;;;;;5043503;28;20484;-73
2021/11/13 13:44:40;;;;;;;0.60;0.60;;;;;;;;;;5037510;28;20441;-73
2021/11/13 13:47:07;;;;;;;0.60;0.50;;;;;;;;;;5049619;28;20444;-74
2021/11/13 13:49:35;;;;;;;0.60;0.50;;;;;;;;;;5048938;28;20466;-74
2021/11/13 13:52:08;;;;;;;0.60;0.60;;;;;;;;;;5053234;28;20523;-74
2021/11/13 13:54:37;;;;;;;0.60;0.60;;;;;;;;;;5055686;28;20412;-74
2021/11/13 13:57:05;;;;;;;0.60;0.60;;;;;;;;;;5054247;28;20440;-74
2021/11/13 13:59:34;;;;;;;0.60;0.60;;;;;;;;;;5055322;28;20928;-74
2021/11/13 14:02:05;;;;;;;0.60;0.60;;;;;;;;;;5055890;28;20818;-75
2021/11/13 14:04:37;;;;;;;0.60;0.60;;;;;;;;;;5055829;28;20412;-74
2021/11/13 14:07:08;;;;;;;0.60;0.50;;;;;;;;;;5053594;28;20433;-74
2021/11/13 14:09:35;;;;;;;0.60;0.60;;;;;;;;;;5054293;28;20828;-74
2021/11/13 14:12:03;;;;;;;0.60;0.60;;;;;;;;;;5053614;28;20417;-74
2021/11/13 14:14:31;;;;;;;0.70;0.70;;;;;;;;;;5035403;28;20457;-74
2021/11/13 14:16:59;;;;;;;0.60;0.50;;;;;;;;;;5034204;28;20413;-74
2021/11/13 14:19:27;;;;;;;0.60;0.50;;;;;;;;;;5033942;28;20837;-74
2021/11/13 14:22:02;;;;;;;0.77;0.77;;;;;;;;;;5039484;28;20471;-74
2021/11/13 14:24:31;;;;;;;0.60;0.60;;;;;;;;;;5051469;28;20449;-75
2021/11/13 14:26:59;;;;;;;1.00;0.90;;;;;;;;;;5053741;28;20783;-74
2021/11/13 14:29:26;;;;;;;0.60;0.50;;;;;;;;;;5053159;28;20451;-74
2021/11/13 14:31:53;;;;;;;0.80;0.70;;;;;;;;;;5054569;28;20422;-73
2021/11/13 14:34:21;;;;;;;0.70;0.60;;;;;;;;;;5054822;28;20786;-73
2021/11/13 14:37:06;;;;;;;0.60;0.60;;;;;;;;;;5054416;28;20409;-73
2021/11/13 14:39:36;;;;;;;0.60;0.50;;;;;;;;;;5053481;28;20444;-74
2021/11/13 14:42:04;;;;;;;0.60;0.50;;;;;;;;;;5051255;28;20499;-74
2021/11/13 14:44:36;;;;;;;0.60;0.50;;;;;;;;;;5053756;28;20431;-74
2021/11/13 14:47:07;;;;;;;0.60;0.60;;;;;;;;;;5054896;28;20424;-74
2021/11/13 14:49:35;;;;;;;1.47;1.37;;;;;;;;;;5052318;28;20480;-73
2021/11/13 14:52:07;;;;;;;0.60;0.60;;;;;;;;;;5050752;28;20448;-73
2021/11/13 14:54:50;;;;;;;0.60;0.60;;;;;;;;;;5068813;28;20440;-74